Latest Weather Observations for Solomon Airport

IDW60801

Issued at 4:33 am WST Thursday 22 February 2018 (issued every 30 minutes, with the page automatically refreshed every 10 minutes)

About weather observations | Map of weather stations | Latest weather observations for WA | Other Formats
Station Details ID: 505060 Name: SOLOMON AIRPORT Lat: -22.25 Lon: 117.85 Height: 611.47 m
Data from the previous 72 hours. | See also: Recent months for locations in Western Australia
Date/Time
WST
Temp
°C
App
Temp
°C
Dew
Point
°C
Rel
Hum
%
Delta-T
°C
Wind Press
QNH
hPa
Press
MSL
hPa
Rain since
9am
mm
Dir  Spd
km/h
Gust
km/h
Spd
kts
Gust
kts
22/04:30am 24.3 27.7 22.7 91 1.1 E 9 11 5 6 1008.5 1003.0 15.4
22/04:00am 24.4 27.9 22.8 91 1.1 E 9 13 5 7 1008.2 1002.7 15.4
22/03:40am 24.6 28.5 23.0 91 1.1 E 7 9 4 5 1008.1 1002.6 15.4
22/03:30am 24.6 28.4 22.8 90 1.2 E 7 9 4 5 1008.0 1002.5 15.4
22/03:00am 25.0 29.0 22.7 87 1.6 E 6 11 3 6 1007.8 1002.3 15.4
22/02:30am 24.8 27.8 22.7 88 1.4 N 11 17 6 9 1007.8 1002.3 15.4
22/02:00am 24.9 28.8 22.6 87 1.6 NNW 6 7 3 4 1008.1 1002.6 15.4
22/01:30am 25.2 29.4 23.1 88 1.5 NNE 6 9 3 5 1008.4 1002.9 15.4
22/01:22am 25.4 29.3 22.5 84 2.0 NNE 6 11 3 6 1008.5 1003.0 15.4
22/01:00am 25.0 29.4 23.4 91 1.1 NE 6 7 3 4 1008.6 1003.1 15.4
22/12:30am 24.9 29.8 23.0 89 1.3 S 2 4 1 2 1008.9 1003.3 15.4
22/12:00am 25.1 28.8 22.6 86 1.7 NW 7 11 4 6 1009.0 1003.4 15.4
 
Date/Time
WST
Temp
°C
App
Temp
°C
Dew
Point
°C
Rel
Hum
%
Delta-T
°C
Wind Press
QNH
hPa
Press
MSL
hPa
Rain since
9am
mm
Dir  Spd
km/h
Gust
km/h
Spd
kts
Gust
kts
21/11:46pm 25.1 28.7 23.0 88 1.5 W 9 13 5 7 1009.0 1003.4 15.4
21/11:30pm 25.1 30.2 22.6 86 1.7 CALM 0 6 0 3 1009.1 1003.5 15.4
21/11:00pm 24.9 29.6 22.6 87 1.6 N 2 7 1 4 1009.1 1003.5 15.4
21/10:30pm 25.1 28.3 22.4 85 1.9 ESE 9 15 5 8 1009.1 1003.5 15.4
21/10:00pm 25.3 28.8 22.2 83 2.1 N 7 15 4 8 1008.4 1002.9 15.4
21/09:30pm 24.8 28.4 22.1 85 1.8 NNW 6 13 3 7 1008.3 1002.8 15.4
21/09:00pm 24.8 28.3 21.9 84 2.0 ENE 6 7 3 4 1008.6 1003.1 15.4
21/08:30pm 25.3 27.8 21.8 81 2.4 ENE 11 20 6 11 1008.3 1002.8 15.4
21/08:00pm 25.3 28.2 21.8 81 2.4 E 9 17 5 9 1008.4 1002.9 15.4
21/07:30pm 24.4 28.0 21.3 83 2.1 ENE 4 11 2 6 1007.7 1002.2 15.4
21/07:00pm 24.4 26.4 21.5 84 2.0 WSW 13 17 7 9 1007.2 1001.6 15.4
21/06:30pm 24.9 27.2 19.5 72 3.6 SSE 6 11 3 6 1007.5 1001.9 15.4
21/06:00pm 23.1 23.1 20.2 84 1.9 NNW 20 33 11 18 1006.7 1001.2 15.4
21/05:43pm 23.3 23.6 20.8 86 1.7 WNW 20 32 11 17 1006.6 1001.1 15.0
21/05:38pm 24.1 24.8 20.4 80 2.5 WNW 17 32 9 17 1006.8 1001.3 15.0
21/05:30pm 24.1 24.2 21.2 84 2.0 NW 22 39 12 21 1006.9 1001.4 15.0
21/05:22pm 25.1 26.0 20.1 74 3.3 WNW 15 33 8 18 1006.7 1001.2 14.4
21/05:07pm 25.4 24.5 22.9 86 1.7 SSE 32 39 17 21 1006.0 1000.4 2.2
21/05:00pm 25.8 25.4 22.3 81 2.4 S 28 39 15 21 1005.8 1000.2 0.8
21/04:46pm 27.6 26.1 20.2 64 5.0 S 28 50 15 27 1005.4 999.8 0.0
21/04:43pm 28.4 27.9 19.1 57 6.2 S 20 39 11 21 1005.6 1000.0 0.0
21/04:30pm 34.0 35.4 19.6 42 9.7 NW 11 19 6 10 1005.0 999.5 0.0
21/04:00pm 34.0 35.1 19.6 42 9.8 NNW 13 28 7 15 1004.7 999.2 0.0
21/03:30pm 34.5 35.4 20.1 43 9.8 NNW 15 26 8 14 1004.9 999.4 0.0
21/03:00pm 34.1 35.2 20.5 45 9.3 NNW 15 26 8 14 1005.5 999.9 0.0
21/02:30pm 33.8 35.1 20.9 46 8.9 N 15 30 8 16 1005.6 1000.0 0.0
21/02:00pm 33.1 34.4 20.9 48 8.4 N 15 26 8 14 1005.9 1000.3 0.0
21/01:30pm 33.7 33.9 19.4 43 9.6 NNE 17 30 9 16 1006.2 1000.7 0.0
21/01:00pm 32.7 33.6 19.2 44 9.1 NE 13 24 7 13 1006.5 1001.0 0.0
21/12:30pm 31.9 33.1 19.9 49 8.1 NE 13 22 7 12 1006.7 1001.2 0.0
21/12:00pm 31.7 33.5 20.3 50 7.8 NE 11 19 6 10 1006.8 1001.3 0.0
21/11:30am 30.4 32.0 20.0 53 7.0 ENE 11 24 6 13 1007.2 1001.6 0.0
21/11:00am 29.1 30.7 20.8 61 5.6 NE 13 22 7 12 1007.5 1001.9 0.0
21/10:30am 27.9 29.0 20.5 64 5.0 ENE 15 24 8 13 1007.7 1002.2 0.0
21/10:00am 27.7 29.0 20.8 66 4.7 NE 15 22 8 12 1007.9 1002.4 0.0
21/09:30am 26.9 28.1 20.7 69 4.2 NE 15 22 8 12 1008.0 1002.5 0.0
21/09:26am 26.5 27.7 20.6 70 4.0 NNE 15 22 8 12 1008.0 1002.5 0.0
21/09:00am 26.2 27.8 20.8 72 3.6 NE 13 19 7 10 1008.0 1002.5 0.0
21/08:30am 25.1 26.6 20.6 76 3.0 ENE 13 20 7 11 1007.9 1002.4 0.0
21/08:00am 25.5 27.0 20.5 74 3.4 ENE 13 19 7 10 1007.8 1002.3 0.0
21/07:35am 25.1 26.7 20.8 77 2.9 NE 13 19 7 10 1007.7 1002.2 0.0
21/07:30am 25.0 26.7 20.9 78 2.8 NE 13 19 7 10 1007.7 1002.2 0.0
21/07:00am 24.2 26.6 20.9 82 2.2 NNE 9 15 5 8 1007.4 1001.8 0.0
21/06:30am 23.2 25.5 20.7 86 1.7 NNE 9 13 5 7 1007.3 1001.7 0.0
21/06:23am 23.2 25.6 20.9 87 1.5 NNE 9 13 5 7 1007.2 1001.6 0.0
21/06:00am 23.1 26.0 21.0 88 1.4 NNE 7 13 4 7 1007.2 1001.6 0.0
21/05:30am 23.2 25.4 21.1 88 1.4 ENE 11 15 6 8 1006.9 1001.4 0.0
21/05:00am 23.1 25.3 21.2 89 1.3 NE 11 17 6 9 1006.6 1001.1 0.0
21/04:30am 23.3 25.6 21.4 89 1.3 NE 11 17 6 9 1006.5 1001.0 0.0
21/04:19am 23.4 25.3 21.3 88 1.4 ENE 13 17 7 9 1006.4 1000.9 0.0
21/04:00am 23.4 26.1 21.3 88 1.4 ENE 9 11 5 6 1006.1 1000.6 0.0
21/03:30am 24.2 26.8 20.5 80 2.5 NNE 7 17 4 9 1006.0 1000.4 0.0
21/03:00am 24.2 26.4 20.5 80 2.5 N 9 19 5 10 1006.0 1000.4 0.0
21/02:30am 24.7 26.4 20.2 76 3.0 NNE 11 17 6 9 1006.1 1000.6 0.0
21/02:00am 25.2 28.0 20.5 75 3.2 NE 6 11 3 6 1006.4 1000.9 0.0
21/01:30am 25.4 27.4 20.0 72 3.6 NNE 9 17 5 9 1006.4 1000.9 0.0
21/01:00am 25.3 26.2 20.1 73 3.5 NNW 15 20 8 11 1006.2 1000.7 0.0
21/12:30am 25.5 26.0 20.1 72 3.6 NNW 17 24 9 13 1006.2 1000.7 0.0
21/12:00am 25.8 25.9 20.4 72 3.6 N 20 26 11 14 1006.2 1000.7 0.0
 
Date/Time
WST
Temp
°C
App
Temp
°C
Dew
Point
°C
Rel
Hum
%
Delta-T
°C
Wind Press
QNH
hPa
Press
MSL
hPa
Rain since
9am
mm
Dir  Spd
km/h
Gust
km/h
Spd
kts
Gust
kts
20/11:30pm 26.1 26.9 20.7 72 3.6 NNW 17 28 9 15 1006.4 1000.9 0.0
20/11:00pm 26.3 28.7 20.8 71 3.7 NW 9 17 5 9 1006.9 1001.4 0.0
20/10:30pm 26.8 27.2 20.6 69 4.2 NNW 19 28 10 15 1006.6 1001.1 0.0
20/10:00pm 27.3 27.3 20.1 64 4.8 N 20 28 11 15 1006.5 1001.0 0.0
20/09:30pm 27.4 28.3 20.0 64 4.9 NNW 15 24 8 13 1006.6 1001.1 0.0
20/09:00pm 27.7 28.3 19.5 61 5.5 NNW 15 24 8 13 1006.3 1000.8 0.0
20/08:30pm 28.1 30.3 19.6 60 5.7 NNW 7 15 4 8 1006.2 1000.7 0.0
20/08:00pm 28.4 28.7 19.6 59 5.9 NNW 17 28 9 15 1006.0 1000.4 0.0
20/07:30pm 28.4 28.8 19.9 60 5.7 NNW 17 22 9 12 1005.4 999.8 0.0
20/07:00pm 28.7 28.3 19.3 56 6.3 NNW 20 30 11 16 1004.8 999.3 0.0
20/06:30pm 30.5 31.1 19.5 51 7.4 N 15 24 8 13 1004.8 999.3 0.0
20/06:00pm 30.5 31.7 19.8 52 7.2 ENE 13 19 7 10 1004.8 999.3 0.0
20/05:30pm 31.3 32.2 19.3 49 8.0 NE 13 24 7 13 1004.4 998.8 0.0
20/05:00pm 31.4 31.2 19.4 49 8.1 NNW 19 33 10 18 1004.0 998.4 0.0
20/04:30pm 32.1 32.0 18.7 45 8.9 N 17 24 9 13 1004.0 998.4 0.0
20/04:00pm 35.5 36.5 16.8 33 12.3 SSW 7 15 4 8 1003.8 998.2 0.0
20/03:30pm 34.9 35.7 17.2 35 11.6 SW 9 13 5 7 1003.8 998.2 0.0
20/03:00pm 35.8 36.5 17.0 32 12.4 WNW 9 17 5 9 1004.0 998.4 0.0
20/02:30pm 35.6 37.0 17.8 35 11.8 WSW 7 17 4 9 1004.4 998.8 0.0
20/02:00pm 35.9 36.1 17.6 34 12.1 SW 13 20 7 11 1004.7 999.2 0.0
20/01:30pm 35.1 36.1 17.8 36 11.5 S 9 24 5 13 1005.0 999.5 0.0
20/01:00pm 34.7 36.5 18.3 38 11.0 W 6 15 3 8 1005.4 999.8 0.0
20/12:30pm 33.7 36.0 18.6 40 10.1 NNE 4 17 2 9 1005.8 1000.2 0.0
20/12:00pm 33.1 34.7 19.2 43 9.4 WSW 9 19 5 10 1005.9 1000.3 0.0
20/11:30am 32.6 34.0 19.5 46 8.8 SW 11 20 6 11 1006.3 1000.8 0.0
20/11:00am 31.1 33.4 19.4 49 7.8 N 6 13 3 7 1006.5 1001.0 0.0
20/10:30am 30.7 33.0 19.4 51 7.6 ESE 6 15 3 8 1006.9 1001.4 0.0
20/10:00am 30.3 32.5 19.6 52 7.2 SSW 7 17 4 9 1006.9 1001.4 0.0
20/09:30am 29.6 31.5 19.0 53 7.0 WSW 7 13 4 7 1007.1 1001.5 0.0
20/09:00am 28.3 30.0 18.4 55 6.5 WSW 7 13 4 7 1007.2 1001.6 0.0
20/08:30am 27.1 28.5 17.8 56 6.0 WSW 7 11 4 6 1006.9 1001.4 0.0
20/08:00am 26.3 27.1 17.4 58 5.7 WSW 9 13 5 7 1006.9 1001.4 0.0
20/07:30am 25.1 25.9 17.3 62 5.0 W 9 15 5 8 1006.9 1001.4 0.0
20/07:00am 23.6 26.3 20.3 82 2.2 SW 6 7 3 4 1006.8 1001.3 0.0
20/06:30am 24.1 26.4 19.4 75 3.1 NW 6 7 3 4 1006.5 1001.0 0.0
20/06:00am 23.8 26.1 19.5 77 2.8 NNW 6 9 3 5 1006.1 1000.6 0.0
20/05:30am 24.6 27.4 19.7 74 3.2 W 4 6 2 3 1005.9 1000.3 0.0
20/05:00am 25.0 28.1 19.6 72 3.6 NNW 2 6 1 3 1005.8 1000.2 0.0
20/04:30am 25.1 27.4 19.9 73 3.4 NE 7 17 4 9 1005.7 1000.1 0.0
20/04:00am 25.4 27.2 19.5 70 3.9 NE 9 13 5 7 1005.5 999.9 0.0
20/03:30am 25.4 26.9 17.6 62 5.0 NE 6 7 3 4 1005.5 999.9 0.0
20/03:00am 25.2 27.3 17.1 60 5.2 NNW 2 4 1 2 1005.5 999.9 0.0
20/02:30am 25.1 26.2 16.5 59 5.4 N 6 7 3 4 1005.5 999.9 0.0
20/02:00am 25.5 26.7 15.8 55 6.1 SSE 4 6 2 3 1005.4 999.8 0.0
20/01:30am 25.7 26.0 15.1 52 6.6 W 7 11 4 6 1005.0 999.5 0.0
20/01:00am 26.2 26.1 15.0 50 6.9 W 9 11 5 6 1005.0 999.5 0.0
20/12:30am 25.6 25.6 15.3 53 6.4 W 9 13 5 7 1005.1 999.6 0.0
20/12:00am 25.4 26.3 16.5 58 5.6 W 7 13 4 7 1005.1 999.6 0.0
 
Date/Time
WST
Temp
°C
App
Temp
°C
Dew
Point
°C
Rel
Hum
%
Delta-T
°C
Wind Press
QNH
hPa
Press
MSL
hPa
Rain since
9am
mm
Dir  Spd
km/h
Gust
km/h
Spd
kts
Gust
kts
19/11:30pm 26.7 27.2 16.6 54 6.4 WSW 9 13 5 7 1005.5 999.9 0.0
19/11:00pm 26.1 27.0 16.6 55 6.0 W 7 9 4 5 1005.5 999.9 0.0
19/10:30pm 26.6 27.1 16.5 54 6.4 W 9 11 5 6 1005.5 999.9 0.0
19/10:00pm 26.8 27.6 16.4 53 6.6 W 7 11 4 6 1005.5 999.9 0.0
19/09:30pm 27.0 27.7 16.0 51 6.9 W 7 9 4 5 1005.5 999.9 0.0
19/09:00pm 27.0 27.8 16.3 52 6.8 WNW 7 9 4 5 1005.0 999.5 0.0
19/08:30pm 27.6 27.9 14.9 45 7.9 W 7 9 4 5 1004.8 999.3 0.0
19/08:00pm 27.9 28.2 14.9 45 8.1 W 7 9 4 5 1004.5 998.9 0.0
19/07:30pm 29.4 30.4 14.4 40 9.3 WSW 2 6 1 3 1004.3 998.7 0.0
19/07:00pm 29.3 30.1 14.7 41 9.1 WSW 4 6 2 3 1004.0 998.4 0.0
19/06:30pm 31.9 31.4 12.7 31 11.7 SW 7 11 4 6 1003.6 998.0 0.0
19/06:00pm 32.4 31.7 13.1 31 11.9 SW 9 13 5 7 1003.4 997.9 0.0
19/05:30pm 33.3 32.5 12.9 29 12.5 SW 9 13 5 7 1003.2 997.7 0.0
19/05:00pm 34.3 31.3 10.8 24 14.1 WSW 17 22 9 12 1003.1 997.6 0.0
19/04:30pm 34.4 31.9 10.9 24 14.1 SW 15 19 8 10 1003.0 997.4 0.0
19/04:00pm 34.6 31.5 10.4 23 14.5 WSW 17 24 9 13 1003.0 997.4 0.0
19/03:30pm 34.8 32.0 11.2 24 14.2 SW 17 28 9 15 1003.0 997.4 0.0
19/03:00pm 35.5 32.9 13.1 26 14.0 WSW 19 30 10 16 1003.2 997.7 0.0
19/02:30pm 34.6 32.7 12.9 27 13.4 WSW 15 28 8 15 1003.4 997.9 0.0
19/02:00pm 34.3 32.8 14.2 29 12.7 SSW 15 26 8 14 1003.9 998.3 0.0
19/01:30pm 33.6 32.6 15.6 34 11.5 WSW 15 26 8 14 1004.2 998.6 0.0
19/01:00pm 33.0 32.9 15.9 35 11.0 WSW 11 19 6 10 1004.6 999.1 0.0
19/12:30pm 32.4 32.5 17.5 41 9.8 WSW 13 22 7 12 1005.0 999.5 0.0
19/12:00pm 31.8 31.5 17.3 42 9.5 WSW 15 24 8 13 1005.6 1000.0 0.0
19/11:30am 31.1 31.1 18.1 46 8.5 WSW 15 22 8 12 1005.9 1000.3 0.0
19/11:00am 29.9 29.7 17.7 48 8.0 SW 15 22 8 12 1006.2 1000.7 0.0
19/10:30am 29.1 29.1 17.3 49 7.6 SW 13 19 7 10 1006.5 1001.0 0.0
19/10:00am 27.8 27.3 17.0 51 6.9 SW 15 19 8 10 1006.8 1001.3 0.0
19/09:30am 26.8 25.8 15.5 50 7.1 SW 15 20 8 11 1006.9 1001.4 0.0
19/09:00am 25.8 24.4 15.5 53 6.4 SW 17 22 9 12 1006.9 1001.4 7.8
19/08:30am 24.9 23.2 14.7 53 6.2 SW 17 24 9 13 1006.9 1001.4 7.8
19/08:00am 24.2 23.3 14.9 56 5.7 WSW 13 19 7 10 1006.7 1001.2 7.8
19/07:30am 23.1 22.5 14.7 59 5.1 WSW 11 15 6 8 1006.8 1001.3 7.8
19/07:00am 22.2 22.2 14.3 61 4.8 W 7 13 4 7 1006.7 1001.2 7.8
19/06:30am 21.5 21.7 14.2 63 4.4 WSW 6 7 3 4 1006.6 1001.1 7.8
19/06:00am 22.1 21.9 13.7 59 5.0 WSW 7 11 4 6 1006.3 1000.8 7.8
19/05:30am 22.4 21.4 14.5 61 4.8 W 13 17 7 9 1005.9 1000.3 7.8
19/05:00am 21.8 21.8 15.2 66 4.0 W 9 13 5 7 1005.8 1000.2 7.8

Other Formats:

Comma delimited format used in spreadsheet applications
http://www.bom.gov.au/fwo/IDW60801/IDW60801.99217.axf

JavaScript Object Notation format (JSON) in row-major order
http://www.bom.gov.au/fwo/IDW60801/IDW60801.99217.json